Time;durP1;ratioP1;P1;durP2;ratioP2;P2;SDS_P1;SDS_P2;PMS_P1;PMS_P2;Temp;Humidity;BMP_temperature;BMP_pressure;BME280_temperature;BME280_humidity;BME280_pressure;Samples;Min_cycle;Max_cycle;Signal;HPM_P1;HPM_P2
2023/08/14 00:01:22;;;;;;;5.93;5.30;;;15.70;99.90;;;;;;5132597;27;20703;-80
2023/08/14 00:03:53;;;;;;;5.68;5.00;;;15.70;99.90;;;;;;5132216;27;20568;-80
2023/08/14 00:06:24;;;;;;;6.05;4.80;;;15.80;99.90;;;;;;5141774;27;20276;-80
2023/08/14 00:08:55;;;;;;;5.35;4.50;;;15.80;99.90;;;;;;5149623;27;20216;-81
2023/08/14 00:11:26;;;;;;;5.93;4.95;;;15.80;99.90;;;;;;5143528;27;20194;-82
2023/08/14 00:13:58;;;;;;;4.72;4.10;;;15.90;99.90;;;;;;5131712;27;20193;-81
2023/08/14 00:16:30;;;;;;;4.38;3.97;;;15.80;99.90;;;;;;5146049;27;20576;-81
2023/08/14 00:19:02;;;;;;;6.32;4.40;;;15.90;99.90;;;;;;5151149;27;20220;-82
2023/08/14 00:21:33;;;;;;;5.55;4.72;;;15.90;99.90;;;;;;5152881;27;20559;-82
2023/08/14 00:24:04;;;;;;;5.70;4.60;;;16.00;99.90;;;;;;5150692;27;20221;-82
2023/08/14 00:26:35;;;;;;;6.05;4.70;;;16.10;99.90;;;;;;5148828;27;20664;-81
2023/08/14 00:29:06;;;;;;;5.30;4.20;;;16.10;99.90;;;;;;5145316;27;20186;-81
2023/08/14 00:31:39;;;;;;;5.78;4.43;;;16.20;99.90;;;;;;5131424;27;20570;-82
2023/08/14 00:34:11;;;;;;;5.90;4.80;;;16.20;99.90;;;;;;5137134;27;20652;-82
2023/08/14 00:36:42;;;;;;;5.75;4.28;;;16.30;99.90;;;;;;5132379;27;20190;-81
2023/08/14 00:39:13;;;;;;;5.68;4.10;;;16.40;99.90;;;;;;5138406;27;20193;-80
2023/08/14 00:41:44;;;;;;;5.05;4.57;;;16.40;99.90;;;;;;5143004;27;20277;-81
2023/08/14 00:44:14;;;;;;;5.18;4.18;;;16.40;99.90;;;;;;5131331;27;20221;-82
2023/08/14 00:46:47;;;;;;;4.28;3.90;;;16.50;99.90;;;;;;5131407;27;20198;-82
2023/08/14 00:49:18;;;;;;;4.32;3.92;;;16.50;99.90;;;;;;5132583;27;20194;-82
2023/08/14 00:51:49;;;;;;;5.85;3.90;;;16.60;99.90;;;;;;5130893;27;20198;-82
2023/08/14 00:54:19;;;;;;;4.97;4.30;;;16.60;99.90;;;;;;5131349;27;20194;-81
2023/08/14 00:56:50;;;;;;;4.20;3.80;;;16.70;99.90;;;;;;5131263;27;20562;-82
2023/08/14 00:59:21;;;;;;;4.97;4.10;;;16.60;99.90;;;;;;5142870;27;20284;-82
2023/08/14 01:01:54;;;;;;;4.80;4.25;;;16.50;99.90;;;;;;5135612;27;20190;-82
2023/08/14 01:04:25;;;;;;;5.07;4.57;;;16.40;99.90;;;;;;5130716;27;20232;-82
2023/08/14 01:06:56;;;;;;;5.35;4.53;;;16.30;99.90;;;;;;5131466;27;20208;-83
2023/08/14 01:09:26;;;;;;;4.75;4.25;;;16.40;99.90;;;;;;5131686;27;20202;-82
2023/08/14 01:12:10;;;;;;;4.72;3.70;;;16.40;99.90;;;;;;5134232;27;20198;-82
2023/08/14 01:14:42;;;;;;;4.22;3.83;;;16.50;99.90;;;;;;5130931;28;20186;-83
2023/08/14 01:17:19;;;;;;;4.32;3.85;;;16.50;99.90;;;;;;5144732;27;20201;-82
2023/08/14 01:19:52;;;;;;;4.10;3.70;;;16.40;99.90;;;;;;5135674;27;20217;-83
2023/08/14 01:22:45;;;;;;;3.78;3.47;;;16.40;99.90;;;;;;5131120;28;20245;-81
2023/08/14 01:25:33;;;;;;;3.30;3.00;;;16.60;99.90;;;;;;5151359;27;20225;-82
2023/08/14 01:28:05;;;;;;;4.30;3.90;;;16.80;99.90;;;;;;5132577;27;20190;-82
2023/08/14 01:30:36;;;;;;;2.88;2.60;;;17.00;99.90;;;;;;5134522;27;20190;-82
2023/08/14 01:33:07;;;;;;;3.35;2.20;;;17.20;99.90;;;;;;5133425;27;20194;-81
2023/08/14 01:35:41;;;;;;;3.88;2.28;;;17.30;99.90;;;;;;5134396;27;20194;-81
2023/08/14 01:38:18;;;;;;;3.25;2.20;;;17.30;99.90;;;;;;5134463;27;20194;-81
2023/08/14 01:40:56;;;;;;;2.83;2.20;;;17.30;99.90;;;;;;5136821;27;20620;-82
2023/08/14 01:43:29;;;;;;;3.72;2.45;;;17.20;99.90;;;;;;5137876;27;20587;-82
2023/08/14 01:46:00;;;;;;;4.07;2.60;;;17.10;99.90;;;;;;5146724;27;20186;-80
2023/08/14 01:48:32;;;;;;;2.45;2.00;;;17.10;99.90;;;;;;5162111;27;20178;-81
2023/08/14 01:51:04;;;;;;;4.28;2.50;;;17.00;99.90;;;;;;5157384;27;20214;-80
2023/08/14 01:53:38;;;;;;;3.03;2.22;;;17.00;99.90;;;;;;5135848;27;20198;-85
2023/08/14 01:56:10;;;;;;;2.72;2.35;;;17.10;99.90;;;;;;5133552;27;20187;-82
2023/08/14 01:58:41;;;;;;;4.60;2.70;;;17.10;99.90;;;;;;5134098;27;20197;-84
2023/08/14 02:01:12;;;;;;;3.50;2.55;;;17.10;99.90;;;;;;5144461;27;20197;-82
2023/08/14 02:03:43;;;;;;;3.70;2.40;;;17.10;99.90;;;;;;5155009;27;20182;-85
2023/08/14 02:06:13;;;;;;;3.97;1.90;;;17.10;99.90;;;;;;5155259;27;20220;-84
2023/08/14 02:08:44;;;;;;;2.13;1.92;;;17.10;99.90;;;;;;5137588;27;20194;-84
2023/08/14 02:11:17;;;;;;;3.78;2.10;;;17.10;99.90;;;;;;5135404;27;20656;-82
2023/08/14 02:13:47;;;;;;;3.13;2.30;;;17.20;99.90;;;;;;5147359;27;20189;-83
2023/08/14 02:16:18;;;;;;;2.88;2.10;;;17.10;99.90;;;;;;5147265;27;20833;-84
2023/08/14 02:18:49;;;;;;;2.15;1.83;;;17.10;99.90;;;;;;5133570;27;20249;-84
2023/08/14 02:21:23;;;;;;;8.20;3.78;;;17.20;99.90;;;;;;5134637;27;20591;-83
2023/08/14 02:23:53;;;;;;;1.67;1.50;;;17.00;99.90;;;;;;5141937;27;20205;-84
2023/08/14 02:26:26;;;;;;;1.73;1.63;;;17.00;99.90;;;;;;5137502;27;20557;-85
2023/08/14 02:28:57;;;;;;;1.92;1.52;;;17.00;99.90;;;;;;5132712;27;20561;-84
2023/08/14 02:31:28;;;;;;;1.52;1.42;;;17.00;99.90;;;;;;5140662;27;20193;-84
2023/08/14 02:34:02;;;;;;;2.67;1.70;;;17.10;99.90;;;;;;5154169;27;20197;-84
2023/08/14 02:36:33;;;;;;;2.20;1.80;;;17.20;99.90;;;;;;5148477;27;20190;-85
2023/08/14 02:39:04;;;;;;;2.50;1.70;;;17.10;99.90;;;;;;5133986;27;20270;-84
2023/08/14 02:41:36;;;;;;;1.60;1.48;;;17.10;99.90;;;;;;5136789;27;20201;-84
2023/08/14 02:44:08;;;;;;;2.03;1.83;;;17.10;99.90;;;;;;5153062;27;20219;-84
2023/08/14 02:46:41;;;;;;;1.63;1.33;;;17.10;99.90;;;;;;5154413;27;20201;-83
2023/08/14 02:49:13;;;;;;;1.60;1.50;;;17.10;99.90;;;;;;5153598;27;20193;-85
2023/08/14 02:51:44;;;;;;;2.53;2.10;;;17.00;99.90;;;;;;5153921;27;20186;-84
2023/08/14 02:54:14;;;;;;;3.00;2.65;;;17.10;99.90;;;;;;5140189;27;20564;-83
2023/08/14 02:56:47;;;;;;;3.72;2.83;;;17.20;99.90;;;;;;5150849;27;20664;-84
2023/08/14 02:59:18;;;;;;;3.53;3.10;;;17.20;99.90;;;;;;5140536;27;20705;-83
2023/08/14 03:01:49;;;;;;;3.65;3.20;;;17.10;99.90;;;;;;5145471;27;20564;-83
2023/08/14 03:04:20;;;;;;;3.75;3.40;;;17.20;99.90;;;;;;5134553;27;20209;-83
2023/08/14 03:06:51;;;;;;;3.58;3.13;;;17.20;99.90;;;;;;5132677;27;20225;-83
2023/08/14 03:09:21;;;;;;;3.60;3.30;;;17.10;99.90;;;;;;5136828;27;20516;-83
2023/08/14 03:11:54;;;;;;;4.45;3.80;;;17.10;99.90;;;;;;5150899;27;20197;-83
2023/08/14 03:14:25;;;;;;;4.10;3.70;;;17.10;99.90;;;;;;5134887;27;20194;-84
2023/08/14 03:16:55;;;;;;;4.25;3.85;;;17.00;99.90;;;;;;5132209;27;20203;-87
2023/08/14 03:19:26;;;;;;;4.50;3.40;;;17.00;99.90;;;;;;5132712;27;20222;-85
2023/08/14 03:21:57;;;;;;;4.40;3.92;;;17.00;99.90;;;;;;5133041;27;20221;-86
2023/08/14 03:24:28;;;;;;;4.15;3.75;;;16.90;99.90;;;;;;5132541;27;20217;-85
2023/08/14 03:27:01;;;;;;;4.65;4.18;;;16.90;99.90;;;;;;5141419;27;20197;-86
2023/08/14 03:29:32;;;;;;;5.30;4.30;;;16.90;99.90;;;;;;5133302;27;20182;-85
2023/08/14 03:32:03;;;;;;;4.50;3.80;;;16.80;99.90;;;;;;5132338;27;20192;-86
2023/08/14 03:34:33;;;;;;;5.28;4.60;;;16.80;99.90;;;;;;5132554;27;20198;-86
2023/08/14 03:37:04;;;;;;;5.15;3.42;;;16.70;99.90;;;;;;5133699;27;20197;-85
2023/08/14 03:39:35;;;;;;;3.80;3.20;;;16.80;99.90;;;;;;5133457;27;20201;-83
2023/08/14 03:42:08;;;;;;;3.83;2.60;;;16.80;99.90;;;;;;5140426;27;20205;-83
2023/08/14 03:44:39;;;;;;;3.50;3.10;;;16.70;99.90;;;;;;5153965;27;20695;-86
2023/08/14 03:47:10;;;;;;;3.65;2.97;;;16.70;99.90;;;;;;5152216;27;20556;-84
2023/08/14 03:49:41;;;;;;;3.40;3.08;;;16.70;99.90;;;;;;5142592;27;20718;-84
2023/08/14 03:52:13;;;;;;;2.90;2.58;;;16.70;99.90;;;;;;5138984;27;20204;-84
2023/08/14 03:54:44;;;;;;;3.90;2.92;;;16.60;99.90;;;;;;5147327;27;20243;-85
2023/08/14 03:57:19;;;;;;;2.63;2.10;;;16.50;99.90;;;;;;5138034;27;20197;-85
2023/08/14 03:59:50;;;;;;;2.05;1.33;;;16.40;99.90;;;;;;5136108;27;20197;-86
2023/08/14 04:02:21;;;;;;;3.00;1.50;;;16.30;99.90;;;;;;5132197;27;20208;-87
2023/08/14 04:04:53;;;;;;;3.55;1.80;;;16.20;99.90;;;;;;5138412;27;20222;-88
2023/08/14 04:07:24;;;;;;;1.92;0.80;;;16.20;99.90;;;;;;5149410;27;20197;-87
2023/08/14 04:09:58;;;;;;;1.20;0.60;;;16.20;99.90;;;;;;5152906;27;20211;-87
2023/08/14 04:12:31;;;;;;;2.30;0.60;;;16.20;99.90;;;;;;5146262;27;20206;-87
2023/08/14 04:15:16;;;;;;;2.03;0.63;;;15.90;99.90;;;;;;5134846;27;20196;-86
2023/08/14 04:17:47;;;;;;;1.30;0.60;;;15.70;99.90;;;;;;5139507;27;20200;-87
2023/08/14 04:20:18;;;;;;;2.42;0.93;;;15.70;99.90;;;;;;5152494;27;20311;-86
2023/08/14 04:22:49;;;;;;;2.45;0.95;;;15.70;99.90;;;;;;5145344;27;20216;-85
2023/08/14 04:25:20;;;;;;;4.88;1.08;;;15.70;99.90;;;;;;5145950;27;20214;-86
2023/08/14 04:27:53;;;;;;;2.17;0.80;;;15.70;99.90;;;;;;5130222;28;20221;-85
2023/08/14 04:30:23;;;;;;;2.08;0.90;;;15.70;99.90;;;;;;5142853;27;20194;-85
2023/08/14 04:32:54;;;;;;;1.58;1.10;;;15.70;99.90;;;;;;5132368;27;20190;-85
2023/08/14 04:35:25;;;;;;;1.58;0.80;;;15.80;99.90;;;;;;5141650;27;20181;-85
2023/08/14 04:37:56;;;;;;;2.17;0.85;;;15.80;99.90;;;;;;5151245;27;20268;-85
2023/08/14 04:40:27;;;;;;;1.33;0.85;;;15.90;99.90;;;;;;5131296;28;20693;-85
2023/08/14 04:42:59;;;;;;;2.97;1.20;;;15.90;99.90;;;;;;5131167;28;20205;-85
2023/08/14 04:45:30;;;;;;;4.43;1.10;;;15.90;99.90;;;;;;5131467;28;20205;-86
2023/08/14 04:48:01;;;;;;;1.20;0.90;;;15.90;99.90;;;;;;5139930;27;20174;-86
2023/08/14 04:50:32;;;;;;;3.35;1.00;;;15.90;99.90;;;;;;5152834;27;20550;-86
2023/08/14 04:53:03;;;;;;;3.08;0.90;;;15.80;99.90;;;;;;5131202;28;20197;-86
2023/08/14 04:55:34;;;;;;;1.38;1.00;;;15.80;99.90;;;;;;5135673;27;20194;-85
2023/08/14 04:58:06;;;;;;;1.88;0.93;;;15.80;99.90;;;;;;5139353;27;20197;-85
2023/08/14 05:00:37;;;;;;;1.77;0.70;;;15.80;99.90;;;;;;5150402;27;20573;-85
2023/08/14 05:03:09;;;;;;;1.75;0.90;;;15.80;99.90;;;;;;5133766;27;20561;-85
2023/08/14 05:05:40;;;;;;;2.95;1.10;;;15.80;99.90;;;;;;5153794;27;20573;-85
2023/08/14 05:08:11;;;;;;;2.30;0.90;;;15.80;99.90;;;;;;5151163;27;20212;-85
2023/08/14 05:10:43;;;;;;;2.08;0.98;;;15.70;99.90;;;;;;5134588;27;20716;-84
2023/08/14 05:13:16;;;;;;;3.97;0.95;;;15.70;99.90;;;;;;5153445;27;20553;-88
2023/08/14 05:15:48;;;;;;;2.85;0.93;;;15.70;99.90;;;;;;5136294;27;20198;-83
2023/08/14 05:18:20;;;;;;;3.92;1.20;;;15.70;99.90;;;;;;5134656;27;20232;-83
2023/08/14 05:20:53;;;;;;;1.38;0.80;;;15.70;99.90;;;;;;5135189;27;20221;-81
2023/08/14 05:23:24;;;;;;;2.80;0.95;;;15.70;99.90;;;;;;5149724;27;20601;-81
2023/08/14 05:25:54;;;;;;;4.00;0.90;;;15.70;99.90;;;;;;5135326;27;20583;-88
2023/08/14 05:28:27;;;;;;;3.25;1.00;;;15.70;99.90;;;;;;5141675;27;20193;-85
2023/08/14 05:30:58;;;;;;;2.10;0.90;;;15.70;99.90;;;;;;5148790;27;20198;-85
2023/08/14 05:33:32;;;;;;;2.78;0.93;;;15.60;99.90;;;;;;5152074;27;20189;-86
2023/08/14 05:36:03;;;;;;;3.85;1.00;;;15.60;99.90;;;;;;5150847;27;20541;-84
2023/08/14 05:38:33;;;;;;;2.53;0.70;;;15.50;99.90;;;;;;5170401;27;20269;-84
2023/08/14 05:41:04;;;;;;;1.67;0.70;;;15.40;99.90;;;;;;5173591;27;20230;-83
2023/08/14 05:43:37;;;;;;;2.53;0.90;;;15.40;99.90;;;;;;5174805;27;20193;-84
2023/08/14 05:46:08;;;;;;;2.65;0.90;;;15.40;99.90;;;;;;5176379;27;20228;-83
2023/08/14 05:48:38;;;;;;;4.82;1.00;;;15.40;99.90;;;;;;5170363;27;20296;-85
2023/08/14 05:51:09;;;;;;;2.28;1.10;;;15.40;99.90;;;;;;5153239;27;20713;-84
2023/08/14 05:53:40;;;;;;;3.85;0.85;;;15.40;99.90;;;;;;5153803;27;20181;-85
2023/08/14 05:56:11;;;;;;;2.35;1.30;;;15.40;99.90;;;;;;5137929;27;20186;-85
2023/08/14 05:58:47;;;;;;;2.03;1.27;;;15.50;99.90;;;;;;5152801;27;20194;-84
2023/08/14 06:01:17;;;;;;;1.95;1.27;;;15.50;99.90;;;;;;5135668;27;20194;-85
2023/08/14 06:03:48;;;;;;;3.90;1.70;;;15.50;99.90;;;;;;5153411;27;20197;-85
2023/08/14 06:06:19;;;;;;;2.60;1.30;;;15.50;99.90;;;;;;5151027;27;20213;-85
2023/08/14 06:08:50;;;;;;;2.22;1.48;;;15.50;99.90;;;;;;5156500;27;20193;-85
2023/08/14 06:11:20;;;;;;;4.35;1.27;;;15.50;99.90;;;;;;5145768;27;20202;-84
2023/08/14 06:13:55;;;;;;;2.38;1.30;;;15.50;99.90;;;;;;5154692;27;20200;-84
2023/08/14 06:16:26;;;;;;;1.67;1.10;;;15.50;99.90;;;;;;5136823;27;20201;-84
2023/08/14 06:18:57;;;;;;;3.33;1.27;;;15.50;99.90;;;;;;5135512;27;20214;-85
2023/08/14 06:21:28;;;;;;;2.67;1.23;;;15.50;99.90;;;;;;5154611;27;20205;-85
2023/08/14 06:23:59;;;;;;;2.55;1.55;;;15.50;99.90;;;;;;5152852;27;20198;-84
2023/08/14 06:26:30;;;;;;;6.50;1.58;;;15.40;99.90;;;;;;5135638;27;20221;-85
2023/08/14 06:29:02;;;;;;;3.33;1.40;;;15.40;99.90;;;;;;5134341;27;20186;-85
2023/08/14 06:31:34;;;;;;;4.75;1.50;;;15.40;99.90;;;;;;5134215;27;20189;-85
2023/08/14 06:34:05;;;;;;;3.08;1.25;;;15.50;99.90;;;;;;5134229;27;20190;-85
2023/08/14 06:36:35;;;;;;;2.70;1.13;;;15.50;99.90;;;;;;5140105;27;20222;-86
2023/08/14 06:39:08;;;;;;;4.32;0.90;;;15.50;99.90;;;;;;5135455;27;20193;-85
2023/08/14 06:41:38;;;;;;;3.72;0.82;;;15.50;99.90;;;;;;5138920;27;20645;-85
2023/08/14 06:44:12;;;;;;;2.40;0.73;;;15.40;99.90;;;;;;5150926;27;20195;-86
2023/08/14 06:46:43;;;;;;;1.73;0.70;;;15.40;99.90;;;;;;5143491;27;20221;-85
2023/08/14 06:49:14;;;;;;;1.88;0.90;;;15.30;99.90;;;;;;5134020;27;20186;-86
2023/08/14 06:51:45;;;;;;;2.33;0.95;;;15.40;99.90;;;;;;5133537;27;20195;-85
2023/08/14 06:54:16;;;;;;;1.80;1.20;;;15.30;99.90;;;;;;5134476;27;20193;-86
2023/08/14 06:56:46;;;;;;;1.70;1.20;;;15.40;99.90;;;;;;5144599;27;20208;-86
2023/08/14 06:59:19;;;;;;;1.75;0.90;;;15.40;99.90;;;;;;5144045;27;20618;-88
2023/08/14 07:01:50;;;;;;;1.95;1.10;;;15.30;99.90;;;;;;5142623;27;20191;-88
2023/08/14 07:04:21;;;;;;;3.40;0.90;;;15.30;99.90;;;;;;5134534;27;20186;-85
2023/08/14 07:06:52;;;;;;;3.13;1.13;;;15.30;99.90;;;;;;5134086;27;20691;-86
2023/08/14 07:09:22;;;;;;;1.95;1.02;;;15.40;99.90;;;;;;5137621;27;20780;-86
2023/08/14 07:11:53;;;;;;;1.48;1.00;;;15.30;99.90;;;;;;5148761;27;20186;-84
2023/08/14 07:14:26;;;;;;;2.53;1.10;;;15.40;99.90;;;;;;5156315;27;20201;-85
2023/08/14 07:16:57;;;;;;;2.72;1.20;;;15.40;99.90;;;;;;5148704;27;20182;-85
2023/08/14 07:19:27;;;;;;;2.45;1.42;;;15.40;99.90;;;;;;5135169;27;20218;-86
2023/08/14 07:21:58;;;;;;;4.60;1.50;;;15.40;99.90;;;;;;5153379;27;20213;-86
2023/08/14 07:24:29;;;;;;;2.65;1.85;;;15.50;99.90;;;;;;5138581;27;20194;-86
2023/08/14 07:27:00;;;;;;;3.45;1.55;;;15.40;99.90;;;;;;5135686;27;20221;-85
2023/08/14 07:29:33;;;;;;;2.25;1.30;;;15.40;99.90;;;;;;5134881;27;20194;-85
2023/08/14 07:32:03;;;;;;;6.13;2.08;;;15.40;99.90;;;;;;5133184;27;20257;-84
2023/08/14 07:34:34;;;;;;;4.95;1.00;;;15.40;99.90;;;;;;5137483;27;20185;-85
2023/08/14 07:37:05;;;;;;;3.40;1.15;;;15.40;99.90;;;;;;5134141;27;20660;-86
2023/08/14 07:39:36;;;;;;;2.33;1.15;;;15.30;99.90;;;;;;5139271;27;20637;-86
2023/08/14 07:42:07;;;;;;;3.15;1.30;;;15.30;99.90;;;;;;5146390;27;20197;-86
2023/08/14 07:44:39;;;;;;;4.55;1.70;;;15.30;99.90;;;;;;5150527;27;20189;-86
2023/08/14 07:47:10;;;;;;;4.70;1.65;;;15.30;99.90;;;;;;5149602;27;20228;-86
2023/08/14 07:49:41;;;;;;;5.15;2.22;;;15.30;99.90;;;;;;5148891;27;20189;-87
2023/08/14 07:52:12;;;;;;;4.32;1.40;;;15.30;99.90;;;;;;5150016;27;20221;-88
2023/08/14 07:54:43;;;;;;;8.32;1.55;;;15.30;99.90;;;;;;5148915;27;20883;-86
2023/08/14 07:57:13;;;;;;;3.03;1.50;;;15.30;99.90;;;;;;5146385;27;20193;-84
2023/08/14 07:59:46;;;;;;;4.32;1.73;;;15.30;99.90;;;;;;5148516;27;20197;-88
2023/08/14 08:02:17;;;;;;;3.80;1.20;;;15.30;99.90;;;;;;5136231;27;20277;-86
2023/08/14 08:04:48;;;;;;;5.50;1.73;;;15.30;99.90;;;;;;5150467;27;20189;-86
2023/08/14 08:07:22;;;;;;;4.32;1.50;;;15.30;99.90;;;;;;5146966;27;20717;-83
2023/08/14 08:09:55;;;;;;;4.43;1.42;;;15.30;99.90;;;;;;5147406;27;20234;-84
2023/08/14 08:12:26;;;;;;;2.20;1.48;;;15.40;99.90;;;;;;5147538;27;20656;-84
2023/08/14 08:14:59;;;;;;;2.85;1.50;;;15.40;99.90;;;;;;5149100;27;20208;-82
2023/08/14 08:17:29;;;;;;;3.22;1.85;;;15.40;99.90;;;;;;5148399;27;20212;-81
2023/08/14 08:20:00;;;;;;;6.00;2.35;;;15.40;99.90;;;;;;5148679;27;20225;-83
2023/08/14 08:22:31;;;;;;;15.18;4.95;;;15.40;99.90;;;;;;5139365;27;20200;-84
2023/08/14 08:25:02;;;;;;;6.50;3.63;;;15.40;99.90;;;;;;5132151;27;20209;-85
2023/08/14 08:27:32;;;;;;;7.20;3.33;;;15.40;99.90;;;;;;5142881;27;20232;-84
2023/08/14 08:30:06;;;;;;;7.20;4.03;;;15.40;99.90;;;;;;5145466;27;20544;-85
2023/08/14 08:32:36;;;;;;;11.15;3.72;;;15.40;99.90;;;;;;5153468;27;20193;-85
2023/08/14 08:35:07;;;;;;;7.35;2.50;;;15.40;99.90;;;;;;5152525;27;20189;-84
2023/08/14 08:37:38;;;;;;;5.13;2.33;;;15.40;99.90;;;;;;5154343;27;20200;-84
2023/08/14 08:40:10;;;;;;;5.75;2.92;;;15.40;99.90;;;;;;5135775;27;20194;-86
2023/08/14 08:42:42;;;;;;;3.75;1.98;;;15.40;99.90;;;;;;5137906;27;20193;-85
2023/08/14 08:45:18;;;;;;;2.65;1.65;;;15.40;99.90;;;;;;5135454;27;20193;-87
2023/08/14 08:47:51;;;;;;;12.50;6.68;;;15.40;99.90;;;;;;5143238;27;20216;-88
2023/08/14 08:50:22;;;;;;;11.27;6.28;;;15.40;99.90;;;;;;5156440;27;20201;-87
2023/08/14 08:52:53;;;;;;;7.50;3.67;;;15.50;99.90;;;;;;5136252;27;20204;-87
2023/08/14 08:55:25;;;;;;;7.07;3.40;;;15.50;99.90;;;;;;5139567;27;20197;-87
2023/08/14 08:57:58;;;;;;;14.45;5.68;;;15.50;99.90;;;;;;5151431;27;20201;-86
2023/08/14 09:00:31;;;;;;;6.82;3.65;;;15.50;99.90;;;;;;5149848;27;20182;-86
2023/08/14 09:03:02;;;;;;;10.27;4.13;;;15.40;99.90;;;;;;5155556;27;20189;-87
2023/08/14 09:05:35;;;;;;;4.40;2.13;;;15.40;99.90;;;;;;5150425;27;20182;-86
2023/08/14 09:08:08;;;;;;;4.70;2.05;;;15.30;99.90;;;;;;5141365;27;20206;-86
2023/08/14 09:10:42;;;;;;;5.55;2.20;;;15.30;99.90;;;;;;5136784;27;20194;-87
2023/08/14 09:13:13;;;;;;;4.53;1.95;;;15.30;99.90;;;;;;5141184;27;20198;-88
2023/08/14 09:15:51;;;;;;;3.10;1.40;;;15.20;99.90;;;;;;5139067;27;20200;-88
2023/08/14 09:18:22;;;;;;;4.43;1.88;;;15.20;99.90;;;;;;5113134;28;20230;-85
2023/08/14 09:20:54;;;;;;;5.72;2.13;;;15.20;99.90;;;;;;5129345;27;20759;-86
2023/08/14 09:23:24;;;;;;;4.32;2.22;;;15.20;99.90;;;;;;5128580;27;20210;-85
2023/08/14 09:25:56;;;;;;;3.33;1.63;;;15.10;99.90;;;;;;5131750;27;20194;-86
2023/08/14 09:28:27;;;;;;;3.85;1.95;;;15.10;99.90;;;;;;5118905;27;20198;-86
2023/08/14 09:31:08;;;;;;;20.27;6.50;;;15.00;99.90;;;;;;5114153;28;20197;-87
2023/08/14 09:33:40;;;;;;;15.65;6.10;;;14.80;99.90;;;;;;5114965;28;20694;-87
2023/08/14 09:36:11;;;;;;;11.85;4.80;;;14.80;99.90;;;;;;5126537;27;20194;-87
2023/08/14 09:38:42;;;;;;;7.00;2.72;;;14.80;99.90;;;;;;5135388;27;20663;-88
2023/08/14 09:41:13;;;;;;;3.28;1.83;;;14.80;99.90;;;;;;5134730;27;20194;-89
2023/08/14 09:43:47;;;;;;;5.97;2.25;;;14.80;99.90;;;;;;5120062;27;20273;-88
2023/08/14 09:46:22;;;;;;;5.75;2.30;;;14.70;99.90;;;;;;5116771;27;20194;-86
2023/08/14 09:48:53;;;;;;;3.33;1.58;;;14.80;99.90;;;;;;5116162;28;20637;-87
2023/08/14 09:51:24;;;;;;;5.75;2.20;;;14.80;99.90;;;;;;5119303;27;20198;-86
2023/08/14 09:53:57;;;;;;;6.13;2.20;;;14.70;99.90;;;;;;5117137;27;20194;-87
2023/08/14 09:56:28;;;;;;;10.57;5.22;;;14.80;99.90;;;;;;5113855;27;20199;-88
2023/08/14 09:58:59;;;;;;;13.60;4.53;;;14.80;99.90;;;;;;5120797;27;20380;-87
2023/08/14 10:01:32;;;;;;;10.15;4.53;;;14.70;99.90;;;;;;5113849;27;20211;-86
2023/08/14 10:04:04;;;;;;;6.35;2.50;;;14.70;99.90;;;;;;5114635;27;20201;-86
2023/08/14 10:06:35;;;;;;;4.47;1.60;;;14.80;99.90;;;;;;5115778;28;20851;-84
2023/08/14 10:09:06;;;;;;;4.50;2.15;;;14.70;99.90;;;;;;5116788;28;20201;-84
2023/08/14 10:11:39;;;;;;;2.88;1.73;;;14.60;99.90;;;;;;5116570;28;20187;-85
2023/08/14 10:14:12;;;;;;;4.88;1.85;;;14.70;99.90;;;;;;5114051;28;20183;-85
2023/08/14 10:16:47;;;;;;;4.95;1.98;;;14.70;99.90;;;;;;5113771;28;20198;-85
2023/08/14 10:19:25;;;;;;;3.10;1.70;;;14.70;99.90;;;;;;5126180;27;20244;-86
2023/08/14 10:21:59;;;;;;;4.53;1.95;;;14.70;99.90;;;;;;5134303;27;20193;-85
2023/08/14 10:24:31;;;;;;;4.47;1.75;;;14.70;99.90;;;;;;5134824;27;20217;-85
2023/08/14 10:27:03;;;;;;;4.40;2.10;;;14.70;99.90;;;;;;5141799;27;20217;-86
2023/08/14 10:29:35;;;;;;;6.65;3.00;;;14.70;99.90;;;;;;5140177;27;20194;-85
2023/08/14 10:32:16;;;;;;;5.75;2.58;;;14.70;99.90;;;;;;5136766;27;20194;-86
2023/08/14 10:34:55;;;;;;;3.85;2.70;;;14.70;99.90;;;;;;5135831;27;20204;-86
2023/08/14 10:37:31;;;;;;;7.40;2.85;;;14.70;99.90;;;;;;5140207;27;20193;-87
2023/08/14 10:40:17;;;;;;;6.85;2.70;;;14.70;99.90;;;;;;5146774;27;20204;-86
2023/08/14 10:42:53;;;;;;;4.45;2.60;;;14.60;99.90;;;;;;5135980;27;20194;-87
2023/08/14 10:45:26;;;;;;;5.70;3.00;;;14.70;99.90;;;;;;5134681;27;20208;-84
2023/08/14 10:48:10;;;;;;;5.63;2.50;;;14.60;99.90;;;;;;5135324;27;20214;-87
2023/08/14 10:50:40;;;;;;;6.88;2.55;;;14.60;99.90;;;;;;5136294;27;20202;-87
2023/08/14 10:53:14;;;;;;;5.65;2.78;;;14.60;99.90;;;;;;5138814;27;20196;-88
2023/08/14 10:55:46;;;;;;;7.43;3.10;;;14.60;99.90;;;;;;5146395;27;20189;-87
2023/08/14 10:58:46;;;;;;;5.60;2.90;;;14.50;99.90;;;;;;5137944;27;20198;-86
2023/08/14 11:01:19;;;;;;;4.00;2.22;;;14.50;99.90;;;;;;5135194;27;20190;-87
2023/08/14 11:04:05;;;;;;;5.57;2.53;;;14.50;99.90;;;;;;5135328;27;20671;-87
2023/08/14 11:07:08;;;;;;;3.63;2.40;;;14.50;99.90;;;;;;5136063;27;20688;-87
2023/08/14 11:09:42;;;;;;;11.55;4.35;;;14.50;99.90;;;;;;5154413;27;20239;-89
2023/08/14 11:12:19;;;;;;;5.50;2.70;;;14.50;99.90;;;;;;5145535;27;20197;-88
2023/08/14 11:14:56;;;;;;;6.28;2.50;;;14.40;99.90;;;;;;5154068;27;20203;-87
2023/08/14 11:17:31;;;;;;;6.35;2.40;;;14.20;99.90;;;;;;5154333;27;20670;-86
2023/08/14 11:20:19;;;;;;;2.40;2.00;;;14.20;99.90;;;;;;5136860;27;20305;-87
2023/08/14 11:22:50;;;;;;;4.03;2.00;;;14.30;99.90;;;;;;5136868;27;20706;-87
2023/08/14 11:25:22;;;;;;;3.97;2.20;;;14.30;99.90;;;;;;5145711;27;20193;-89
2023/08/14 11:27:53;;;;;;;3.92;2.38;;;14.30;99.90;;;;;;5144835;27;20222;-88
2023/08/14 11:30:29;;;;;;;3.92;2.22;;;14.30;99.90;;;;;;5136574;27;20229;-88
2023/08/14 11:33:00;;;;;;;9.15;2.65;;;14.30;99.90;;;;;;5154529;27;20196;-88
2023/08/14 11:35:35;;;;;;;5.07;2.63;;;14.40;99.90;;;;;;5156023;27;20184;-87
2023/08/14 11:38:06;;;;;;;5.00;2.58;;;14.30;99.90;;;;;;5140494;27;20208;-87
2023/08/14 11:40:37;;;;;;;3.47;2.10;;;14.30;99.90;;;;;;5138681;27;20272;-86
2023/08/14 11:43:08;;;;;;;5.35;2.58;;;14.30;99.90;;;;;;5146945;27;20660;-89
2023/08/14 11:45:40;;;;;;;4.80;2.50;;;14.20;99.90;;;;;;5136705;27;20186;-88
2023/08/14 11:48:11;;;;;;;4.07;2.58;;;14.30;99.90;;;;;;5143591;27;20217;-87
2023/08/14 11:50:49;;;;;;;5.00;2.60;;;14.20;99.90;;;;;;5152323;27;20181;-88
2023/08/14 11:53:20;;;;;;;5.85;3.40;;;14.20;99.90;;;;;;5135191;27;20182;-87
2023/08/14 11:55:51;;;;;;;7.25;4.10;;;14.10;99.90;;;;;;5134918;27;20198;-87
2023/08/14 11:58:22;;;;;;;4.78;3.67;;;14.10;99.90;;;;;;5137061;27;20194;-88
2023/08/14 12:00:54;;;;;;;4.20;3.65;;;14.10;99.90;;;;;;5136280;27;20201;-89
2023/08/14 12:03:26;;;;;;;5.85;3.45;;;14.10;99.90;;;;;;5145532;27;20189;-88
2023/08/14 12:06:07;;;;;;;6.85;4.38;;;14.00;99.90;;;;;;5148604;27;20245;-88
2023/08/14 12:08:38;;;;;;;6.97;4.63;;;14.00;99.90;;;;;;5151832;27;20220;-87
2023/08/14 12:11:10;;;;;;;5.85;3.70;;;14.00;99.90;;;;;;5154253;27;20276;-90
2023/08/14 12:13:40;;;;;;;5.72;3.60;;;14.10;99.90;;;;;;5152406;27;20204;-89
2023/08/14 12:16:12;;;;;;;6.95;3.75;;;14.00;99.90;;;;;;5156125;27;20189;-90
2023/08/14 12:18:48;;;;;;;4.95;3.50;;;14.10;99.90;;;;;;5153871;27;20228;-88
2023/08/14 12:21:21;;;;;;;3.55;3.13;;;14.10;99.90;;;;;;5135334;27;20277;-89
2023/08/14 12:24:00;;;;;;;4.97;3.28;;;14.10;99.90;;;;;;5135196;27;20568;-91
2023/08/14 12:26:43;;;;;;;4.20;3.25;;;14.00;99.90;;;;;;5135295;27;20242;-88
2023/08/14 12:29:17;;;;;;;6.28;3.40;;;14.00;99.90;;;;;;5146162;27;20794;-89
2023/08/14 12:31:49;;;;;;;4.28;2.90;;;14.00;99.90;;;;;;5146110;27;20268;-88
2023/08/14 12:34:21;;;;;;;5.55;3.25;;;14.00;99.90;;;;;;5155808;27;20683;-88
2023/08/14 12:36:54;;;;;;;3.92;2.75;;;14.00;99.90;;;;;;5143254;27;20206;-88
2023/08/14 12:39:24;;;;;;;3.55;2.88;;;14.00;99.90;;;;;;5148765;27;20201;-87
2023/08/14 12:42:02;;;;;;;3.65;2.58;;;13.90;99.90;;;;;;5142954;27;20190;-86
2023/08/14 12:44:33;;;;;;;4.65;2.75;;;13.90;99.90;;;;;;5137128;28;20280;-87
2023/08/14 12:47:04;;;;;;;4.63;2.58;;;13.90;99.90;;;;;;5147588;27;20189;-88
2023/08/14 12:49:36;;;;;;;3.65;2.50;;;13.90;99.90;;;;;;5146055;27;20190;-87
2023/08/14 12:52:09;;;;;;;3.00;2.58;;;13.80;99.90;;;;;;5134143;28;20232;-87
2023/08/14 12:54:40;;;;;;;3.70;2.47;;;13.80;99.90;;;;;;5116872;28;20201;-89
2023/08/14 12:57:13;;;;;;;3.17;2.22;;;13.80;99.90;;;;;;5137276;27;20228;-89
2023/08/14 12:59:44;;;;;;;3.42;2.20;;;13.80;99.90;;;;;;5136911;27;20596;-86
2023/08/14 13:02:15;;;;;;;3.22;2.10;;;13.70;99.90;;;;;;5134262;28;20186;-87
2023/08/14 13:04:45;;;;;;;3.83;2.22;;;13.70;99.90;;;;;;5148684;27;20211;-90
2023/08/14 13:07:20;;;;;;;2.95;1.95;;;13.70;99.90;;;;;;5154585;27;20370;-91
2023/08/14 13:09:51;;;;;;;3.15;1.95;;;13.60;99.90;;;;;;5154485;27;20208;-88
2023/08/14 13:12:22;;;;;;;2.67;2.10;;;13.60;99.90;;;;;;5135569;27;20656;-88